createdAt,value
2018-08-12T00:00:16.376Z,20.10
2018-08-12T00:02:45.577Z,20.00
2018-08-12T00:05:14.766Z,20.10
2018-08-12T00:07:44.073Z,20.00
2018-08-12T00:10:13.486Z,20.00
2018-08-12T00:12:43.058Z,20.00
2018-08-12T00:15:15.285Z,20.00
2018-08-12T00:17:44.500Z,20.00
2018-08-12T00:20:15.937Z,20.00
2018-08-12T00:22:45.679Z,20.00
2018-08-12T00:25:16.259Z,19.90
2018-08-12T00:27:45.541Z,19.80
2018-08-12T00:30:18.527Z,19.70
2018-08-12T00:32:47.705Z,19.80
2018-08-12T00:35:18.029Z,19.80
2018-08-12T00:37:47.269Z,19.70
2018-08-12T00:40:17.261Z,19.70
2018-08-12T00:42:46.866Z,19.70
2018-08-12T00:45:17.710Z,19.70
2018-08-12T00:47:47.127Z,19.60
2018-08-12T00:50:17.141Z,19.70
2018-08-12T00:52:46.393Z,19.60
2018-08-12T00:55:16.850Z,19.60
2018-08-12T00:57:46.885Z,19.60
2018-08-12T01:00:18.345Z,19.60
2018-08-12T01:02:47.582Z,19.60
2018-08-12T01:05:17.836Z,19.60
2018-08-12T01:07:47.970Z,19.60
2018-08-12T01:10:17.769Z,19.50
2018-08-12T01:12:46.966Z,19.50
2018-08-12T01:15:18.341Z,19.50
2018-08-12T01:17:47.575Z,19.40
2018-08-12T01:20:23.696Z,18.90
2018-08-12T01:22:52.918Z,18.70
2018-08-12T01:25:22.493Z,18.70
2018-08-12T01:27:51.725Z,18.90
2018-08-12T01:30:21.988Z,19.00
2018-08-12T01:32:51.174Z,19.10
2018-08-12T01:35:20.363Z,19.10
2018-08-12T01:37:49.985Z,19.20
2018-08-12T01:40:19.796Z,19.20
2018-08-12T01:42:48.990Z,19.20
2018-08-12T01:45:19.961Z,19.20
2018-08-12T01:47:49.338Z,19.10
2018-08-12T01:50:19.582Z,19.10
2018-08-12T01:52:48.825Z,18.90
2018-08-12T01:55:18.167Z,19.00
2018-08-12T01:57:47.312Z,19.10
2018-08-12T02:00:19.728Z,19.00
2018-08-12T02:02:49.262Z,19.00
2018-08-12T02:05:18.792Z,19.10
2018-08-12T02:07:47.993Z,19.00
2018-08-12T02:10:17.186Z,19.00
2018-08-12T02:12:46.371Z,18.80
2018-08-12T02:15:15.583Z,18.70
2018-08-12T02:17:44.832Z,18.80
2018-08-12T02:20:14.034Z,18.90
2018-08-12T02:22:43.280Z,18.90
2018-08-12T02:25:12.839Z,18.90
2018-08-12T02:27:42.010Z,18.80
2018-08-12T02:30:12.462Z,18.70
2018-08-12T02:32:42.682Z,18.70
2018-08-12T02:35:11.885Z,18.70
2018-08-12T02:37:41.712Z,18.70
2018-08-12T02:40:11.225Z,18.50
2018-08-12T02:42:40.389Z,18.50
2018-08-12T02:45:12.977Z,18.20
2018-08-12T02:47:42.111Z,18.30
2018-08-12T02:50:11.318Z,18.50
2018-08-12T02:52:40.481Z,18.50
2018-08-12T02:55:10.417Z,18.50
2018-08-12T02:57:39.609Z,18.50
2018-08-12T03:00:10.429Z,18.50
2018-08-12T03:02:39.638Z,18.50
2018-08-12T03:05:08.806Z,18.50
2018-08-12T03:07:37.985Z,18.40
2018-08-12T03:10:07.752Z,18.30
2018-08-12T03:12:37.006Z,18.30
2018-08-12T03:15:07.600Z,18.30
2018-08-12T03:17:36.976Z,18.40
2018-08-12T03:20:07.510Z,18.50
2018-08-12T03:22:37.029Z,18.50
2018-08-12T03:25:07.136Z,18.50
2018-08-12T03:27:36.333Z,18.50
2018-08-12T03:30:06.631Z,18.50
2018-08-12T03:32:35.778Z,18.50
2018-08-12T03:35:05.002Z,18.50
2018-08-12T03:37:34.172Z,18.50
2018-08-12T03:40:03.378Z,18.40
2018-08-12T03:42:32.562Z,18.40
2018-08-12T03:45:01.766Z,18.40
2018-08-12T03:47:30.912Z,18.40
2018-08-12T03:50:00.082Z,18.40
2018-08-12T03:52:29.233Z,18.30
2018-08-12T03:54:58.405Z,18.30
2018-08-12T03:57:27.556Z,18.20
2018-08-12T03:59:56.730Z,18.20
2018-08-12T04:02:32.344Z,18.20
2018-08-12T04:05:01.563Z,18.20
2018-08-12T04:07:30.761Z,18.20
2018-08-12T04:09:59.894Z,18.00
2018-08-12T04:12:29.054Z,17.90
2018-08-12T04:14:58.245Z,17.70
2018-08-12T04:17:27.390Z,17.90
2018-08-12T04:19:56.639Z,17.90
2018-08-12T04:22:25.777Z,18.00
2018-08-12T04:24:55.345Z,18.10
2018-08-12T04:27:24.566Z,18.10
2018-08-12T04:29:53.753Z,18.00
2018-08-12T04:32:22.934Z,18.00
2018-08-12T04:34:52.130Z,18.10
2018-08-12T04:37:21.434Z,18.10
2018-08-12T04:39:50.594Z,18.00
2018-08-12T04:42:19.838Z,17.90
2018-08-12T04:44:49.012Z,18.00
2018-08-12T04:47:18.160Z,18.00
2018-08-12T04:49:47.327Z,18.00
2018-08-12T04:52:16.542Z,18.20
2018-08-12T04:54:45.736Z,18.30
2018-08-12T04:57:14.957Z,18.20
2018-08-12T04:59:44.254Z,18.20
2018-08-12T05:02:16.226Z,18.20
2018-08-12T05:04:48.441Z,18.20
2018-08-12T05:07:17.709Z,18.20
2018-08-12T05:09:46.858Z,18.20
2018-08-12T05:12:16.051Z,18.20
2018-08-12T05:14:45.186Z,18.20
2018-08-12T05:17:14.410Z,18.10
2018-08-12T05:19:43.529Z,18.10
2018-08-12T05:22:12.707Z,18.00
2018-08-12T05:24:41.851Z,18.00
2018-08-12T05:27:11.046Z,18.00
2018-08-12T05:29:40.200Z,18.00
2018-08-12T05:32:09.337Z,18.00
2018-08-12T05:34:38.600Z,18.00
2018-08-12T05:37:07.796Z,18.00
2018-08-12T05:39:36.933Z,18.10
2018-08-12T05:42:06.064Z,18.00
2018-08-12T05:44:35.245Z,18.00
2018-08-12T05:47:04.449Z,18.10
2018-08-12T05:49:33.618Z,18.10
2018-08-12T05:52:02.774Z,17.90
2018-08-12T05:54:31.990Z,18.10
2018-08-12T05:57:01.186Z,18.20
2018-08-12T05:59:30.402Z,18.30
2018-08-12T06:01:59.615Z,18.10
2018-08-12T06:04:28.767Z,18.10
2018-08-12T06:06:58.034Z,18.20
2018-08-12T06:09:27.228Z,18.10
2018-08-12T06:11:56.425Z,18.30
2018-08-12T06:14:25.583Z,18.40
2018-08-12T06:16:54.705Z,18.40
2018-08-12T06:19:23.906Z,18.40
2018-08-12T06:21:53.061Z,18.30
2018-08-12T06:24:22.226Z,18.20
2018-08-12T06:26:51.457Z,18.30
2018-08-12T06:29:20.690Z,18.50
2018-08-12T06:31:49.839Z,18.40
2018-08-12T06:34:19.006Z,18.50
2018-08-12T06:36:48.133Z,18.70
2018-08-12T06:39:17.312Z,19.20
2018-08-12T06:41:46.514Z,19.90
2018-08-12T06:44:15.684Z,20.80
2018-08-12T06:46:44.857Z,21.50
2018-08-12T06:49:14.068Z,22.10
2018-08-12T06:51:43.398Z,22.50
2018-08-12T06:54:12.489Z,23.20
2018-08-12T06:56:41.652Z,23.80
2018-08-12T06:59:10.933Z,24.00
2018-08-12T07:01:40.132Z,24.40
2018-08-12T07:04:09.358Z,24.40
2018-08-12T07:06:38.617Z,24.30
2018-08-12T07:09:08.985Z,24.80
2018-08-12T07:11:39.207Z,25.30
2018-08-12T07:14:08.431Z,25.90
2018-08-12T07:16:37.982Z,26.10
2018-08-12T07:19:08.215Z,25.90
2018-08-12T07:21:37.484Z,26.40
2018-08-12T07:24:06.691Z,26.40
2018-08-12T07:26:35.926Z,27.00
2018-08-12T07:29:05.157Z,27.30
2018-08-12T07:31:34.341Z,27.40
2018-08-12T07:34:03.553Z,27.40
2018-08-12T07:36:32.792Z,27.10
2018-08-12T07:39:02.046Z,27.60
2018-08-12T07:41:31.239Z,28.60
2018-08-12T07:44:00.462Z,28.90
2018-08-12T07:46:29.684Z,28.80
2018-08-12T07:48:58.910Z,29.10
2018-08-12T07:51:28.109Z,29.70
2018-08-12T07:53:57.296Z,29.60
2018-08-12T07:56:26.556Z,29.80
2018-08-12T07:58:55.810Z,30.20
2018-08-12T08:01:24.963Z,30.20
2018-08-12T08:03:54.193Z,29.90
2018-08-12T08:06:23.520Z,29.80
2018-08-12T08:08:52.623Z,30.20
2018-08-12T08:11:21.881Z,30.90
2018-08-12T08:13:51.178Z,30.20
2018-08-12T08:16:20.425Z,30.30
2018-08-12T08:18:49.643Z,30.70
2018-08-12T08:21:18.809Z,31.00
2018-08-12T08:23:48.186Z,31.20
2018-08-12T08:26:17.451Z,31.00
2018-08-12T08:28:46.773Z,31.00
2018-08-12T08:31:15.994Z,30.80
2018-08-12T08:33:45.204Z,31.00
2018-08-12T08:36:14.536Z,31.30
2018-08-12T08:38:44.963Z,31.30
2018-08-12T08:41:15.130Z,31.10
2018-08-12T08:43:44.355Z,30.40
2018-08-12T08:46:14.362Z,29.50
2018-08-12T08:48:45.011Z,28.90
2018-08-12T08:51:14.162Z,28.10
2018-08-12T08:53:44.662Z,27.10
2018-08-12T08:56:15.090Z,26.40
2018-08-12T08:58:47.997Z,25.90
2018-08-12T09:01:19.205Z,25.40
2018-08-12T09:03:48.372Z,25.00
2018-08-12T09:06:17.643Z,24.80
2018-08-12T09:08:46.939Z,24.80
2018-08-12T09:11:15.914Z,24.80
2018-08-12T09:13:45.101Z,24.60
2018-08-12T09:16:20.957Z,24.60
2018-08-12T09:18:50.183Z,24.50
2018-08-12T09:21:19.367Z,24.50
2018-08-12T09:23:48.639Z,24.50
2018-08-12T09:26:17.743Z,24.50
2018-08-12T09:28:46.946Z,24.60
2018-08-12T09:31:16.174Z,24.80
2018-08-12T09:33:45.341Z,25.00
2018-08-12T09:36:14.533Z,24.90
2018-08-12T09:38:43.737Z,25.20
2018-08-12T09:41:12.981Z,25.20
2018-08-12T09:43:42.175Z,25.50
2018-08-12T09:46:11.403Z,25.90
2018-08-12T09:48:40.657Z,26.20
2018-08-12T09:51:09.869Z,26.10
2018-08-12T09:53:39.113Z,25.90
2018-08-12T09:56:08.273Z,25.90
2018-08-12T09:58:37.470Z,25.60
2018-08-12T10:01:06.653Z,25.30
2018-08-12T10:03:35.807Z,25.20
2018-08-12T10:06:05.107Z,25.30
2018-08-12T10:08:34.306Z,25.50
2018-08-12T10:11:03.560Z,25.50
2018-08-12T10:13:32.731Z,25.50
2018-08-12T10:16:01.943Z,25.60
2018-08-12T10:18:31.285Z,25.60
2018-08-12T10:21:00.539Z,25.70
2018-08-12T10:23:29.758Z,25.80
2018-08-12T10:25:59.043Z,26.10
2018-08-12T10:28:28.270Z,26.20
2018-08-12T10:30:57.407Z,26.20
2018-08-12T10:33:26.668Z,26.10
2018-08-12T10:35:55.895Z,26.40
2018-08-12T10:38:25.162Z,26.70
2018-08-12T10:40:54.309Z,27.00
2018-08-12T10:43:23.514Z,27.00
2018-08-12T10:45:52.734Z,27.10
2018-08-12T10:48:21.975Z,27.00
2018-08-12T10:50:51.188Z,27.00
2018-08-12T10:53:20.372Z,27.00
2018-08-12T10:55:49.646Z,26.90
2018-08-12T10:58:18.870Z,26.80
2018-08-12T11:00:48.182Z,26.60
2018-08-12T11:03:17.430Z,26.60
2018-08-12T11:05:47.950Z,26.80
2018-08-12T11:08:17.154Z,27.00
2018-08-12T11:10:46.392Z,27.00
2018-08-12T11:13:15.617Z,27.00
2018-08-12T11:15:44.906Z,27.30
2018-08-12T11:18:14.046Z,27.30
2018-08-12T11:20:43.250Z,27.40
2018-08-12T11:23:12.432Z,27.30
2018-08-12T11:25:41.612Z,27.30
2018-08-12T11:28:10.849Z,27.30
2018-08-12T11:30:40.088Z,27.30
2018-08-12T11:33:09.236Z,27.20
2018-08-12T11:35:38.470Z,27.10
2018-08-12T11:38:07.689Z,26.90
2018-08-12T11:40:36.953Z,27.00
2018-08-12T11:43:06.251Z,27.00
2018-08-12T11:45:35.516Z,27.10
2018-08-12T11:48:04.783Z,27.20
2018-08-12T11:50:33.992Z,27.40
2018-08-12T11:53:03.242Z,27.40
2018-08-12T11:55:32.439Z,27.50
2018-08-12T11:58:01.670Z,27.60
2018-08-12T12:00:30.836Z,27.90
2018-08-12T12:03:00.041Z,28.00
2018-08-12T12:05:29.253Z,28.10
2018-08-12T12:07:58.502Z,28.30
2018-08-12T12:10:27.722Z,28.40
2018-08-12T12:12:56.909Z,28.40
2018-08-12T12:15:26.229Z,28.40
2018-08-12T12:17:55.369Z,28.30
2018-08-12T12:20:24.623Z,28.30
2018-08-12T12:22:53.819Z,28.20
2018-08-12T12:25:23.025Z,28.40
2018-08-12T12:27:52.253Z,28.40
2018-08-12T12:30:22.547Z,28.40
2018-08-12T12:32:53.216Z,28.40
2018-08-12T12:35:22.488Z,28.70
2018-08-12T12:37:51.682Z,28.70
2018-08-12T12:40:20.982Z,28.70
2018-08-12T12:42:50.244Z,28.70
2018-08-12T12:45:19.429Z,28.70
2018-08-12T12:47:48.625Z,28.70
2018-08-12T12:50:19.867Z,28.70
2018-08-12T12:52:50.043Z,28.80
2018-08-12T12:55:20.422Z,28.90
2018-08-12T12:57:49.656Z,28.80
2018-08-12T13:00:19.972Z,28.70
2018-08-12T13:02:49.371Z,28.70
2018-08-12T13:05:19.827Z,28.80
2018-08-12T13:07:49.712Z,28.60
2018-08-12T13:10:19.574Z,28.70
2018-08-12T13:12:48.828Z,28.70
2018-08-12T13:15:18.370Z,28.60
2018-08-12T13:17:47.613Z,28.50
2018-08-12T13:20:18.307Z,28.50
2018-08-12T13:22:48.398Z,28.70
2018-08-12T13:25:19.141Z,28.80
2018-08-12T13:27:48.402Z,28.70
2018-08-12T13:30:18.542Z,28.90
2018-08-12T13:32:48.366Z,29.00
2018-08-12T13:35:17.543Z,29.20
2018-08-12T13:37:46.781Z,29.10
2018-08-12T13:40:17.021Z,29.00
2018-08-12T13:42:46.615Z,28.90
2018-08-12T13:45:16.041Z,29.00
2018-08-12T13:47:46.364Z,29.10
2018-08-12T13:50:18.591Z,29.10
2018-08-12T13:52:48.442Z,29.10
2018-08-12T13:55:18.203Z,29.00
2018-08-12T13:57:48.138Z,29.00
2018-08-12T14:00:18.958Z,28.90
2018-08-12T14:02:48.187Z,28.90
2018-08-12T14:05:18.117Z,28.80
2018-08-12T14:07:47.993Z,28.80
2018-08-12T14:10:17.169Z,28.70
2018-08-12T14:12:46.421Z,28.70
2018-08-12T14:15:18.076Z,28.80
2018-08-12T14:17:48.361Z,28.80
2018-08-12T14:20:18.862Z,28.80
2018-08-12T14:22:48.075Z,28.80
2018-08-12T14:25:17.266Z,28.90
2018-08-12T14:27:46.518Z,29.00
2018-08-12T14:30:17.728Z,29.00
2018-08-12T14:32:47.795Z,29.10
2018-08-12T14:35:17.010Z,29.00
2018-08-12T14:37:46.532Z,29.00
2018-08-12T14:40:15.887Z,29.00
2018-08-12T14:42:45.135Z,29.10
2018-08-12T14:45:15.279Z,29.00
2018-08-12T14:47:45.314Z,29.10
2018-08-12T14:50:17.169Z,29.10
2018-08-12T14:52:46.406Z,29.10
2018-08-12T14:55:17.134Z,29.00
2018-08-12T14:57:46.386Z,28.90
2018-08-12T15:00:16.982Z,28.80
2018-08-12T15:02:47.560Z,28.80
2018-08-12T15:05:17.147Z,28.90
2018-08-12T15:07:46.421Z,29.00
2018-08-12T15:10:15.666Z,29.00
2018-08-12T15:12:45.055Z,28.90
2018-08-12T15:15:15.508Z,28.90
2018-08-12T15:17:45.406Z,28.80
2018-08-12T15:20:15.337Z,28.80
2018-08-12T15:22:44.750Z,28.90
2018-08-12T15:25:16.050Z,28.90
2018-08-12T15:27:45.633Z,28.90
2018-08-12T15:30:14.825Z,29.00
2018-08-12T15:32:44.025Z,28.90
2018-08-12T15:35:13.221Z,28.70
2018-08-12T15:37:42.756Z,28.80
2018-08-12T15:40:13.622Z,28.80
2018-08-12T15:42:43.357Z,28.90
2018-08-12T15:45:14.996Z,28.90
2018-08-12T15:47:44.901Z,29.00
2018-08-12T15:50:14.378Z,29.10
2018-08-12T15:52:45.464Z,29.10
2018-08-12T15:55:14.825Z,29.10
2018-08-12T15:57:44.070Z,29.00
2018-08-12T16:00:17.338Z,28.90
2018-08-12T16:02:46.834Z,28.90
2018-08-12T16:05:16.156Z,28.80
2018-08-12T16:07:46.486Z,28.80
2018-08-12T16:10:19.180Z,28.80
2018-08-12T16:12:49.818Z,28.90
2018-08-12T16:15:19.194Z,28.90
2018-08-12T16:17:48.416Z,28.80
2018-08-12T16:20:17.688Z,28.80
2018-08-12T16:22:46.909Z,28.80
2018-08-12T16:25:18.511Z,28.80
2018-08-12T16:27:47.910Z,28.90
2018-08-12T16:30:18.195Z,28.90
2018-08-12T16:32:47.613Z,28.90
2018-08-12T16:35:17.713Z,28.90
2018-08-12T16:37:47.508Z,28.90
2018-08-12T16:40:18.241Z,28.90
2018-08-12T16:42:47.957Z,29.00
2018-08-12T16:45:17.977Z,29.00
2018-08-12T16:47:47.484Z,29.00
2018-08-12T16:50:16.782Z,28.90
2018-08-12T16:52:46.310Z,28.90
2018-08-12T16:55:17.042Z,28.90
2018-08-12T16:57:47.077Z,28.90
2018-08-12T17:00:17.980Z,28.70
2018-08-12T17:02:47.852Z,28.60
2018-08-12T17:05:18.293Z,28.60
2018-08-12T17:07:47.516Z,28.60
2018-08-12T17:10:17.612Z,28.50
2018-08-12T17:12:46.801Z,28.50
2018-08-12T17:15:18.270Z,28.60
2018-08-12T17:17:48.031Z,28.80
2018-08-12T17:20:18.474Z,28.80
2018-08-12T17:22:48.085Z,28.70
2018-08-12T17:25:17.347Z,28.60
2018-08-12T17:27:46.551Z,28.60
2018-08-12T17:30:16.774Z,28.70
2018-08-12T17:32:45.991Z,28.60
2018-08-12T17:35:15.248Z,28.60
2018-08-12T17:37:45.707Z,28.50
2018-08-12T17:40:17.306Z,28.40
2018-08-12T17:42:46.703Z,28.30
2018-08-12T17:45:15.917Z,28.20
2018-08-12T17:47:45.146Z,28.20
2018-08-12T17:50:15.836Z,28.20
2018-08-12T17:52:45.080Z,28.10
2018-08-12T17:55:14.387Z,28.10
2018-08-12T17:57:43.651Z,27.90
2018-08-12T18:00:14.654Z,27.90
2018-08-12T18:02:43.953Z,27.80
2018-08-12T18:05:13.149Z,27.70
2018-08-12T18:07:42.452Z,27.50
2018-08-12T18:10:11.660Z,27.50
2018-08-12T18:12:40.887Z,27.30
2018-08-12T18:15:11.516Z,27.00
2018-08-12T18:17:41.441Z,26.90
2018-08-12T18:20:10.875Z,26.80
2018-08-12T18:22:40.122Z,26.80
2018-08-12T18:25:10.661Z,26.60
2018-08-12T18:27:39.958Z,26.70
2018-08-12T18:30:12.334Z,26.80
2018-08-12T18:32:41.947Z,26.70
2018-08-12T18:35:11.961Z,26.70
2018-08-12T18:37:41.667Z,26.60
2018-08-12T18:40:11.868Z,26.50
2018-08-12T18:42:41.470Z,26.50
2018-08-12T18:45:10.712Z,26.50
2018-08-12T18:47:40.392Z,26.60
2018-08-12T18:50:10.451Z,26.50
2018-08-12T18:52:40.426Z,26.40
2018-08-12T18:55:11.407Z,26.40
2018-08-12T18:57:40.648Z,26.40
2018-08-12T19:00:12.056Z,26.50
2018-08-12T19:02:41.319Z,26.50
2018-08-12T19:05:11.723Z,26.40
2018-08-12T19:07:40.989Z,26.20
2018-08-12T19:10:10.962Z,26.20
2018-08-12T19:12:40.791Z,26.00
2018-08-12T19:15:11.214Z,26.00
2018-08-12T19:17:40.554Z,26.00
2018-08-12T19:20:10.657Z,26.00
2018-08-12T19:22:40.351Z,25.90
2018-08-12T19:25:10.158Z,25.80
2018-08-12T19:27:39.365Z,25.70
2018-08-12T19:30:11.197Z,25.60
2018-08-12T19:32:40.528Z,25.60
2018-08-12T19:35:10.650Z,25.60
2018-08-12T19:37:39.955Z,25.50
2018-08-12T19:40:09.354Z,25.50
2018-08-12T19:42:38.920Z,25.50
2018-08-12T19:45:09.310Z,25.50
2018-08-12T19:47:38.518Z,25.40
2018-08-12T19:50:08.280Z,25.30
2018-08-12T19:52:37.585Z,25.30
2018-08-12T19:55:07.556Z,25.30
2018-08-12T19:57:36.722Z,25.30
2018-08-12T20:00:07.812Z,25.30
2018-08-12T20:02:36.983Z,25.30
2018-08-12T20:05:06.358Z,25.30
2018-08-12T20:07:35.515Z,25.20
2018-08-12T20:10:06.563Z,25.00
2018-08-12T20:12:35.950Z,25.00
2018-08-12T20:15:07.350Z,25.10
2018-08-12T20:17:36.707Z,25.20
2018-08-12T20:20:07.408Z,25.10
2018-08-12T20:22:36.776Z,25.20
2018-08-12T20:25:06.976Z,25.20
2018-08-12T20:27:36.213Z,25.20
2018-08-12T20:30:08.120Z,25.20
2018-08-12T20:32:37.352Z,25.00
2018-08-12T20:35:06.751Z,24.90
2018-08-12T20:37:35.966Z,24.80
2018-08-12T20:40:06.609Z,24.70
2018-08-12T20:42:36.053Z,24.80
2018-08-12T20:45:05.610Z,24.80
2018-08-12T20:47:34.912Z,24.60
2018-08-12T20:50:05.133Z,24.60
2018-08-12T20:52:34.524Z,24.70
2018-08-12T20:55:03.961Z,24.70
2018-08-12T20:57:33.323Z,24.60
2018-08-12T21:00:03.239Z,24.60
2018-08-12T21:02:33.293Z,24.60
2018-08-12T21:05:02.627Z,24.60
2018-08-12T21:07:32.040Z,24.70
2018-08-12T21:10:01.364Z,24.60
2018-08-12T21:12:30.620Z,24.60
2018-08-12T21:14:59.810Z,24.60
2018-08-12T21:17:29.046Z,24.60
2018-08-12T21:19:58.242Z,24.60
2018-08-12T21:22:27.446Z,24.60
2018-08-12T21:24:56.745Z,24.60
2018-08-12T21:27:26.038Z,24.50
2018-08-12T21:29:55.260Z,24.50
2018-08-12T21:32:24.413Z,24.40
2018-08-12T21:34:53.672Z,24.40
2018-08-12T21:37:23.152Z,24.40
2018-08-12T21:39:52.457Z,24.40
2018-08-12T21:42:21.634Z,24.40
2018-08-12T21:44:50.807Z,24.30
2018-08-12T21:47:21.054Z,24.40
2018-08-12T21:49:50.262Z,24.20
2018-08-12T21:52:19.497Z,24.20
2018-08-12T21:54:48.672Z,24.20
2018-08-12T21:57:17.886Z,24.00
2018-08-12T21:59:47.082Z,23.90
2018-08-12T22:02:16.316Z,23.70
2018-08-12T22:04:45.532Z,23.70
2018-08-12T22:07:14.720Z,23.70
2018-08-12T22:09:43.922Z,23.90
2018-08-12T22:12:13.122Z,23.80
2018-08-12T22:14:42.360Z,23.70
2018-08-12T22:17:11.511Z,23.60
2018-08-12T22:19:41.082Z,23.60
2018-08-12T22:22:10.266Z,23.60
2018-08-12T22:24:39.466Z,23.60
2018-08-12T22:27:08.595Z,23.50
2018-08-12T22:29:37.746Z,23.60
2018-08-12T22:32:06.925Z,23.60
2018-08-12T22:34:36.126Z,23.60
2018-08-12T22:37:05.548Z,23.60
2018-08-12T22:39:34.780Z,23.50
2018-08-12T22:42:04.021Z,23.50
2018-08-12T22:44:33.218Z,23.60
2018-08-12T22:47:02.353Z,23.50
2018-08-12T22:49:31.519Z,23.50
2018-08-12T22:52:00.692Z,23.50
2018-08-12T22:54:29.877Z,23.50
2018-08-12T22:56:59.070Z,23.50
2018-08-12T22:59:28.205Z,23.50
2018-08-12T23:01:57.441Z,23.40
2018-08-12T23:04:26.618Z,23.20
2018-08-12T23:06:55.769Z,23.10
2018-08-12T23:09:24.954Z,23.30
2018-08-12T23:11:54.154Z,23.00
2018-08-12T23:14:23.405Z,22.70
2018-08-12T23:17:00.438Z,22.80
2018-08-12T23:19:29.975Z,22.90
2018-08-12T23:21:59.255Z,22.80
2018-08-12T23:24:28.435Z,22.90
2018-08-12T23:26:57.568Z,22.90
2018-08-12T23:29:26.769Z,23.00
2018-08-12T23:31:55.955Z,22.80
2018-08-12T23:34:25.160Z,22.90
2018-08-12T23:36:54.305Z,22.90
2018-08-12T23:39:23.506Z,22.80
2018-08-12T23:41:52.676Z,22.70
2018-08-12T23:44:21.819Z,22.70
2018-08-12T23:46:51.037Z,22.70
2018-08-12T23:49:20.232Z,22.70
2018-08-12T23:51:49.390Z,22.60
2018-08-12T23:54:18.520Z,22.60
2018-08-12T23:56:47.721Z,22.50
2018-08-12T23:59:16.885Z,22.60
